createdAt,value
2022-09-22T00:02:01.967Z,69.91
2022-09-22T00:07:06.221Z,69.53
2022-09-22T00:12:09.070Z,69.37
2022-09-22T00:17:12.273Z,70.01
2022-09-22T00:22:16.425Z,70.36
2022-09-22T00:27:19.244Z,70.71
2022-09-22T00:32:21.842Z,71.04
2022-09-22T00:37:26.143Z,70.63
2022-09-22T00:42:29.156Z,70.37
2022-09-22T00:47:36.017Z,69.90
2022-09-22T00:52:48.054Z,68.93
2022-09-22T00:57:54.109Z,69.06
2022-09-22T01:03:00.232Z,68.93
2022-09-22T01:08:04.545Z,68.84
2022-09-22T01:13:21.494Z,69.26
2022-09-22T01:18:34.941Z,69.23
2022-09-22T01:24:17.255Z,69.10
2022-09-22T01:29:53.741Z,69.69
2022-09-22T01:35:05.236Z,69.59
2022-09-22T01:40:13.263Z,69.33
2022-09-22T01:45:19.383Z,69.12
2022-09-22T01:50:28.277Z,69.08
2022-09-22T01:55:34.868Z,69.04
2022-09-22T02:00:41.889Z,69.47
2022-09-22T02:05:48.652Z,69.23
2022-09-22T02:10:54.609Z,69.22
2022-09-22T02:16:03.485Z,69.34
2022-09-22T02:21:07.744Z,69.53
2022-09-22T02:26:12.605Z,69.82
2022-09-22T02:31:20.818Z,69.76
2022-09-22T02:36:39.870Z,70.21
2022-09-22T02:41:57.169Z,69.97
2022-09-22T02:47:05.104Z,70.25
2022-09-22T02:52:13.884Z,70.66
2022-09-22T02:57:16.697Z,70.61
2022-09-22T03:02:19.590Z,70.43
2022-09-22T03:07:23.749Z,70.14
2022-09-22T03:12:26.547Z,69.74
2022-09-22T03:17:29.224Z,69.68
2022-09-22T03:22:33.494Z,69.65
2022-09-22T03:27:36.331Z,69.80
2022-09-22T03:32:39.741Z,70.05
2022-09-22T03:37:43.981Z,70.25
2022-09-22T03:42:46.930Z,70.44
2022-09-22T03:47:49.806Z,70.53
2022-09-22T03:52:54.009Z,70.24
2022-09-22T03:57:56.823Z,69.86
2022-09-22T04:02:59.963Z,70.01
2022-09-22T04:08:04.515Z,70.48
2022-09-22T04:13:07.341Z,70.78
2022-09-22T04:18:10.343Z,71.34
2022-09-22T04:23:17.242Z,71.21
2022-09-22T04:28:20.321Z,70.79
2022-09-22T04:33:23.472Z,70.65
2022-09-22T04:38:27.802Z,70.69
2022-09-22T04:43:30.641Z,71.88
2022-09-22T04:48:33.476Z,72.55
2022-09-22T04:53:37.656Z,73.28
2022-09-22T04:58:40.587Z,73.53
2022-09-22T05:03:43.429Z,73.55
2022-09-22T05:08:47.579Z,73.47
2022-09-22T05:13:50.920Z,73.57
2022-09-22T05:18:53.981Z,73.34
2022-09-22T05:23:58.248Z,72.94
2022-09-22T05:29:01.209Z,72.98
2022-09-22T05:34:04.079Z,72.88
2022-09-22T05:39:08.223Z,72.93
2022-09-22T05:44:11.092Z,73.56
2022-09-22T05:49:13.924Z,74.38
2022-09-22T05:54:22.535Z,72.82
2022-09-22T05:59:26.172Z,71.19
2022-09-22T06:04:29.028Z,70.10
2022-09-22T06:09:33.499Z,69.21
2022-09-22T06:14:36.308Z,68.24
2022-09-22T06:19:39.047Z,67.81
2022-09-22T06:24:43.280Z,67.82
2022-09-22T06:29:46.131Z,67.07
2022-09-22T06:34:51.871Z,65.99
2022-09-22T06:39:56.051Z,65.21
2022-09-22T06:44:58.851Z,64.64
2022-09-22T06:50:05.587Z,63.97
2022-09-22T06:55:10.761Z,63.86
2022-09-22T07:00:15.100Z,63.65
2022-09-22T07:05:21.274Z,63.52
2022-09-22T07:10:25.474Z,63.02
2022-09-22T07:15:30.092Z,62.22
2022-09-22T07:20:33.632Z,61.91
2022-09-22T07:25:37.813Z,61.10
2022-09-22T07:30:41.945Z,60.44
2022-09-22T07:35:44.702Z,60.47
2022-09-22T07:40:54.420Z,58.93
2022-09-22T07:45:57.849Z,58.70
2022-09-22T07:51:00.642Z,60.04
2022-09-22T07:56:07.265Z,57.66
2022-09-22T08:01:10.986Z,57.11
2022-09-22T08:06:16.057Z,55.96
2022-09-22T08:11:22.137Z,54.48
2022-09-22T08:16:28.253Z,55.30
2022-09-22T08:21:35.347Z,54.41
2022-09-22T08:26:42.732Z,53.81
2022-09-22T08:31:49.617Z,53.29
2022-09-22T08:36:52.950Z,53.55
2022-09-22T08:42:05.992Z,51.92
2022-09-22T08:47:37.958Z,53.11
2022-09-22T08:52:46.863Z,50.64
2022-09-22T08:58:07.203Z,49.63
2022-09-22T09:03:27.657Z,49.08
2022-09-22T09:09:05.551Z,48.24
2022-09-22T09:14:24.211Z,47.19
2022-09-22T09:19:33.703Z,47.21
2022-09-22T09:30:11.311Z,45.77
2022-09-22T09:35:15.951Z,45.64
2022-09-22T09:40:22.101Z,44.89
2022-09-22T09:52:20.401Z,41.81
2022-09-22T09:57:27.868Z,41.86
2022-09-22T10:02:32.988Z,42.48
2022-09-22T10:07:44.462Z,40.16
2022-09-22T10:12:47.145Z,40.71
2022-09-22T10:17:49.942Z,39.87
2022-09-22T10:22:55.035Z,38.92
2022-09-22T10:28:03.443Z,38.16
2022-09-22T10:33:18.329Z,39.43
2022-09-22T10:38:24.825Z,39.20
2022-09-22T10:43:37.920Z,38.16
2022-09-22T10:48:46.177Z,37.59
2022-09-22T10:54:13.405Z,36.38
2022-09-22T10:59:39.379Z,35.28
2022-09-22T11:04:55.474Z,41.10
2022-09-22T11:10:29.526Z,40.39
2022-09-22T11:15:47.375Z,40.01
2022-09-22T11:20:57.257Z,40.27
2022-09-22T11:26:18.793Z,40.70
2022-09-22T11:31:37.846Z,36.39
2022-09-22T11:36:51.594Z,31.01
2022-09-22T11:42:11.042Z,29.84
2022-09-22T11:47:42.326Z,31.21
2022-09-22T11:53:01.405Z,33.72
2022-09-22T11:58:10.759Z,39.16
2022-09-22T12:03:18.838Z,38.84
2022-09-22T12:08:24.082Z,39.10
2022-09-22T12:13:29.807Z,39.07
2022-09-22T12:18:42.578Z,38.97
2022-09-22T12:23:51.286Z,37.50
2022-09-22T12:28:57.934Z,38.10
2022-09-22T12:34:00.788Z,36.84
2022-09-22T12:39:18.153Z,30.68
2022-09-22T12:44:25.473Z,27.32
2022-09-22T12:49:28.285Z,26.75
2022-09-22T12:54:38.950Z,31.97
2022-09-22T13:00:08.053Z,35.92
2022-09-22T13:05:33.274Z,35.55
2022-09-22T13:10:42.547Z,35.87
2022-09-22T13:16:02.342Z,36.31
2022-09-22T13:21:20.349Z,36.95
2022-09-22T13:26:25.756Z,28.32
2022-09-22T13:31:36.585Z,24.88
2022-09-22T13:36:40.044Z,27.84
2022-09-22T13:41:47.253Z,31.88
2022-09-22T13:46:51.989Z,35.13
2022-09-22T13:51:58.624Z,35.91
2022-09-22T13:57:03.298Z,36.49
2022-09-22T14:02:10.249Z,34.43
2022-09-22T14:07:13.728Z,28.93
2022-09-22T14:12:17.248Z,26.50
2022-09-22T14:17:26.812Z,28.86
2022-09-22T14:22:32.773Z,32.77
2022-09-22T14:27:45.159Z,34.84
2022-09-22T14:32:52.227Z,36.07
2022-09-22T14:38:02.813Z,36.64
2022-09-22T14:43:24.215Z,36.20
2022-09-22T14:48:33.376Z,36.98
2022-09-22T14:53:43.510Z,37.05
2022-09-22T14:58:52.177Z,38.01
2022-09-22T15:04:00.763Z,37.10
2022-09-22T15:09:05.455Z,37.53
2022-09-22T15:14:42.039Z,38.72
2022-09-22T15:19:50.394Z,38.89
2022-09-22T15:24:53.098Z,37.81
2022-09-22T15:29:57.622Z,35.51
2022-09-22T15:35:01.671Z,34.79
2022-09-22T15:40:16.453Z,34.73
2022-09-22T15:45:22.462Z,34.71
2022-09-22T15:50:30.602Z,35.69
2022-09-22T15:55:34.353Z,37.11
2022-09-22T16:00:38.923Z,39.12
2022-09-22T16:05:44.824Z,39.63
2022-09-22T16:10:47.557Z,39.67
2022-09-22T16:15:51.999Z,40.45
2022-09-22T16:21:05.689Z,40.66
2022-09-22T16:26:08.456Z,40.64
2022-09-22T16:31:13.466Z,39.94
2022-09-22T16:36:17.639Z,40.42
2022-09-22T16:41:22.110Z,40.61
2022-09-22T16:46:29.940Z,41.10
2022-09-22T16:51:36.287Z,41.89
2022-09-22T16:56:39.510Z,42.92
2022-09-22T17:01:43.754Z,43.52
2022-09-22T17:06:48.673Z,43.72
2022-09-22T17:11:52.567Z,44.72
2022-09-22T17:16:57.267Z,44.95
2022-09-22T17:22:01.444Z,45.44
2022-09-22T17:27:05.572Z,45.67
2022-09-22T17:32:09.027Z,46.42
2022-09-22T17:37:15.626Z,46.69
2022-09-22T17:42:19.136Z,47.23
2022-09-22T17:47:38.773Z,47.87
2022-09-22T17:53:05.677Z,47.55
2022-09-22T17:58:10.199Z,47.85
2022-09-22T18:03:13.056Z,48.15
2022-09-22T18:08:17.901Z,48.29
2022-09-22T18:13:20.884Z,49.11
2022-09-22T18:18:24.031Z,49.52
2022-09-22T18:23:28.980Z,49.85
2022-09-22T18:28:31.828Z,49.88
2022-09-22T18:33:36.487Z,50.58
2022-09-22T18:38:42.293Z,50.67
2022-09-22T18:43:45.338Z,51.13
2022-09-22T18:48:49.436Z,51.57
2022-09-22T18:53:54.285Z,51.93
2022-09-22T18:58:57.174Z,52.39
2022-09-22T19:03:59.811Z,52.91
2022-09-22T19:09:03.964Z,53.17
2022-09-22T19:14:07.871Z,53.34
2022-09-22T19:19:10.617Z,53.50
2022-09-22T19:24:14.751Z,54.02
2022-09-22T19:29:17.539Z,54.46
2022-09-22T19:34:20.600Z,54.35
2022-09-22T19:39:25.466Z,54.68
2022-09-22T19:44:30.084Z,54.77
2022-09-22T19:49:32.863Z,55.22
2022-09-22T19:54:37.010Z,55.79
2022-09-22T19:59:39.892Z,56.11
2022-09-22T20:04:42.728Z,56.25
2022-09-22T20:09:46.867Z,56.61
2022-09-22T20:14:51.399Z,56.88
2022-09-22T20:19:55.179Z,57.43
2022-09-22T20:25:01.960Z,57.79
2022-09-22T20:30:06.574Z,58.03
2022-09-22T20:35:11.890Z,57.88
2022-09-22T20:40:20.391Z,58.32
2022-09-22T20:45:24.790Z,58.47
2022-09-22T20:50:27.654Z,58.69
2022-09-22T20:55:31.889Z,58.78
2022-09-22T21:00:35.017Z,59.12
2022-09-22T21:05:37.785Z,59.15
2022-09-22T21:10:41.931Z,59.27
2022-09-22T21:15:44.787Z,59.34
2022-09-22T21:20:47.654Z,59.63
2022-09-22T21:25:58.256Z,59.59
2022-09-22T21:31:02.401Z,60.07
2022-09-22T21:36:08.565Z,60.50
2022-09-22T21:41:14.660Z,60.57
2022-09-22T21:46:19.048Z,60.58
2022-09-22T21:51:22.976Z,60.78
2022-09-22T21:56:27.203Z,60.74
2022-09-22T22:01:32.335Z,60.99
2022-09-22T22:06:40.092Z,60.96
2022-09-22T22:11:46.643Z,60.88
2022-09-22T22:16:50.990Z,60.95
2022-09-22T22:21:54.841Z,61.02
2022-09-22T22:27:01.286Z,61.37
2022-09-22T22:32:05.334Z,61.81
2022-09-22T22:37:10.053Z,61.76
2022-09-22T22:42:14.232Z,61.85
2022-09-22T22:47:17.237Z,62.35
2022-09-22T22:52:20.168Z,62.61
2022-09-22T22:57:24.311Z,62.71
2022-09-22T23:02:27.089Z,62.63
2022-09-22T23:07:29.676Z,62.72
2022-09-22T23:12:34.514Z,62.69
2022-09-22T23:17:37.347Z,62.79
2022-09-22T23:22:39.909Z,62.99
2022-09-22T23:27:49.089Z,63.06
2022-09-22T23:32:51.834Z,63.16
2022-09-22T23:37:54.586Z,63.16
2022-09-22T23:42:59.694Z,63.35
2022-09-22T23:48:02.841Z,63.37
2022-09-22T23:53:05.601Z,63.33
2022-09-22T23:58:09.794Z,63.26
